Time;durP1;ratioP1;P1;durP2;ratioP2;P2;SDS_P1;SDS_P2;PMS_P1;PMS_P2;Temp;Humidity;BMP_temperature;BMP_pressure;BME280_temperature;BME280_humidity;BME280_pressure;Samples;Min_cycle;Max_cycle;Signal;HPM_P1;HPM_P2
2022/04/04 00:00:00;;;;;;;1.07;1.07;;;6.80;49.50;;;;;;5070875;28;20209;-42
2022/04/04 00:02:27;;;;;;;3.50;1.20;;;6.80;49.60;;;;;;5068458;28;20210;-43
2022/04/04 00:04:55;;;;;;;2.03;1.43;;;6.80;49.70;;;;;;5063967;28;20232;-44
2022/04/04 00:07:22;;;;;;;3.07;1.60;;;6.80;49.60;;;;;;5067843;28;20194;-42
2022/04/04 00:09:50;;;;;;;2.50;1.80;;;6.80;50.00;;;;;;5063178;28;20680;-42
2022/04/04 00:12:17;;;;;;;2.73;1.30;;;6.80;50.10;;;;;;5066983;28;20202;-41
2022/04/04 00:14:44;;;;;;;1.87;1.50;;;6.80;50.00;;;;;;5061023;28;20247;-41
2022/04/04 00:17:11;;;;;;;4.87;1.63;;;6.80;50.30;;;;;;5066303;28;20226;-45
2022/04/04 00:19:40;;;;;;;2.17;1.97;;;6.80;50.10;;;;;;5059019;28;20185;-42
2022/04/04 00:22:09;;;;;;;2.73;1.97;;;6.80;50.20;;;;;;5065821;28;20181;-42
2022/04/04 00:24:36;;;;;;;2.57;2.30;;;6.80;50.60;;;;;;5065391;28;20275;-42
2022/04/04 00:27:04;;;;;;;6.50;2.80;;;6.70;50.60;;;;;;5064256;28;20238;-41
2022/04/04 00:29:31;;;;;;;6.17;3.03;;;6.70;51.10;;;;;;5059124;28;20218;-42
2022/04/04 00:31:58;;;;;;;3.40;2.43;;;6.60;51.20;;;;;;5063375;28;20580;-42
2022/04/04 00:34:25;;;;;;;4.03;2.60;;;6.60;51.30;;;;;;5056928;28;20202;-44
2022/04/04 00:36:53;;;;;;;3.73;2.10;;;6.60;51.40;;;;;;5063116;28;20197;-43
2022/04/04 00:39:21;;;;;;;7.17;2.30;;;6.60;51.50;;;;;;5091567;28;20201;-43
2022/04/04 00:41:49;;;;;;;1.70;1.60;;;6.50;51.60;;;;;;5067943;28;20634;-42
2022/04/04 00:44:16;;;;;;;2.50;1.43;;;6.50;51.70;;;;;;5070741;28;20723;-42
2022/04/04 00:46:44;;;;;;;2.50;1.80;;;6.60;52.10;;;;;;5066962;28;20201;-45
2022/04/04 00:49:11;;;;;;;2.83;1.60;;;6.50;52.20;;;;;;5065627;28;20217;-45
2022/04/04 00:51:39;;;;;;;1.40;1.30;;;6.50;52.30;;;;;;5068770;28;20608;-43
2022/04/04 00:54:08;;;;;;;2.03;1.20;;;6.50;53.40;;;;;;5069833;28;20196;-43
2022/04/04 00:56:39;;;;;;;2.40;1.60;;;6.50;52.60;;;;;;5068374;28;20191;-42
2022/04/04 00:59:10;;;;;;;2.50;1.70;;;6.60;52.90;;;;;;5069186;28;20682;-42
2022/04/04 01:01:37;;;;;;;1.73;1.50;;;6.60;53.10;;;;;;5065011;28;20707;-42
2022/04/04 01:04:04;;;;;;;1.60;1.33;;;6.60;53.30;;;;;;5061019;28;20223;-41
2022/04/04 01:06:31;;;;;;;1.17;1.03;;;6.60;53.70;;;;;;5063938;28;20649;-42
2022/04/04 01:08:59;;;;;;;1.40;1.30;;;6.70;53.80;;;;;;5066711;28;20696;-43
2022/04/04 01:11:26;;;;;;;2.63;1.40;;;6.70;54.10;;;;;;5061679;28;20197;-42
2022/04/04 01:13:54;;;;;;;1.30;1.20;;;6.70;54.30;;;;;;5065970;28;20202;-42
2022/04/04 01:16:22;;;;;;;2.20;1.40;;;6.70;54.90;;;;;;5061019;28;20225;-46
2022/04/04 01:18:49;;;;;;;2.33;1.60;;;6.70;55.50;;;;;;5064568;28;20198;-45
2022/04/04 01:21:19;;;;;;;1.30;1.10;;;6.70;55.60;;;;;;5059835;28;20194;-46
2022/04/04 01:23:50;;;;;;;1.53;1.30;;;6.70;55.60;;;;;;5064700;28;20246;-43
2022/04/04 01:26:19;;;;;;;1.73;1.53;;;6.70;56.10;;;;;;5060241;28;20285;-44
2022/04/04 01:28:46;;;;;;;1.30;1.20;;;6.80;56.40;;;;;;5063387;28;20564;-44
2022/04/04 01:31:13;;;;;;;1.83;1.30;;;6.70;56.70;;;;;;5060043;28;20204;-43
2022/04/04 01:33:41;;;;;;;1.40;1.30;;;6.70;57.40;;;;;;5061557;28;20202;-42
2022/04/04 01:36:08;;;;;;;1.60;1.50;;;6.70;57.50;;;;;;5059618;28;20240;-42
2022/04/04 01:38:35;;;;;;;1.83;1.10;;;6.70;57.90;;;;;;5061228;28;20216;-43
2022/04/04 01:41:02;;;;;;;1.60;1.50;;;6.70;57.70;;;;;;5062716;28;20363;-45
2022/04/04 01:43:31;;;;;;;2.10;1.60;;;6.70;58.60;;;;;;5069623;28;20288;-41
2022/04/04 01:48:42;;;;;;;2.40;1.87;;;6.70;60.30;;;;;;5065090;28;20213;-44
2022/04/04 01:51:09;;;;;;;1.70;1.60;;;6.70;62.10;;;;;;5069372;28;20280;-43
2022/04/04 01:53:37;;;;;;;1.90;1.70;;;6.60;62.70;;;;;;5067218;28;20606;-47
2022/04/04 01:56:05;;;;;;;2.10;1.70;;;6.60;64.80;;;;;;5069107;28;20194;-43
2022/04/04 01:58:34;;;;;;;2.67;1.60;;;6.60;65.70;;;;;;5065711;28;20193;-46
2022/04/04 02:01:02;;;;;;;2.23;1.63;;;6.60;66.90;;;;;;5067067;28;20198;-42
2022/04/04 02:03:31;;;;;;;1.90;1.70;;;6.50;68.20;;;;;;5064263;28;20207;-48
2022/04/04 02:05:59;;;;;;;2.13;1.33;;;6.50;68.60;;;;;;5065978;28;20461;-44
2022/04/04 02:08:27;;;;;;;3.30;1.80;;;6.50;68.90;;;;;;5066462;28;20345;-45
2022/04/04 02:10:54;;;;;;;1.73;1.60;;;6.60;70.10;;;;;;5064814;28;20251;-43
2022/04/04 02:13:23;;;;;;;1.70;1.43;;;6.50;70.40;;;;;;5064030;28;20281;-42
2022/04/04 02:15:52;;;;;;;1.97;1.80;;;6.60;71.20;;;;;;5065652;28;20644;-43
2022/04/04 02:18:19;;;;;;;2.27;1.70;;;6.60;72.20;;;;;;5062486;28;20296;-43
2022/04/04 02:20:46;;;;;;;2.60;1.60;;;6.60;72.40;;;;;;5062214;28;20213;-44
2022/04/04 02:23:17;;;;;;;5.70;2.00;;;6.60;73.40;;;;;;5063398;28;20198;-44
2022/04/04 02:25:45;;;;;;;4.73;1.80;;;6.60;73.70;;;;;;5061109;28;20609;-42
2022/04/04 02:28:14;;;;;;;3.07;1.47;;;6.60;74.40;;;;;;5062411;28;20553;-44
2022/04/04 02:30:42;;;;;;;1.90;1.80;;;6.60;74.50;;;;;;5059776;28;20200;-41
2022/04/04 02:33:12;;;;;;;2.83;1.63;;;6.60;75.00;;;;;;5065689;28;20205;-41
2022/04/04 02:35:40;;;;;;;3.93;1.80;;;6.60;75.40;;;;;;5059341;28;20210;-42
2022/04/04 02:38:08;;;;;;;3.70;2.10;;;6.60;75.70;;;;;;5063400;28;20194;-42
2022/04/04 02:40:37;;;;;;;2.30;1.83;;;6.60;75.80;;;;;;5064412;28;20197;-42
2022/04/04 02:43:05;;;;;;;2.73;1.73;;;6.70;75.90;;;;;;5073049;28;20289;-42
2022/04/04 02:45:32;;;;;;;2.10;1.53;;;6.70;76.00;;;;;;5071392;28;20199;-49
2022/04/04 02:48:00;;;;;;;2.00;1.70;;;6.70;75.70;;;;;;5068736;28;20530;-46
2022/04/04 02:50:29;;;;;;;6.07;1.60;;;6.80;76.50;;;;;;5071852;28;20292;-48
2022/04/04 02:52:56;;;;;;;1.40;1.30;;;6.90;76.70;;;;;;5071201;28;20190;-46
2022/04/04 02:58:09;;;;;;;4.10;2.00;;;6.90;76.50;;;;;;5068748;28;20557;-46
2022/04/04 03:00:36;;;;;;;1.90;1.63;;;6.90;76.70;;;;;;5070840;28;20193;-44
2022/04/04 03:03:03;;;;;;;1.30;1.20;;;6.90;76.70;;;;;;5066175;28;20565;-42
2022/04/04 03:05:32;;;;;;;1.73;1.47;;;6.90;76.70;;;;;;5070175;28;20201;-45
2022/04/04 03:07:59;;;;;;;1.90;1.80;;;6.90;77.00;;;;;;5065512;28;20222;-43
2022/04/04 03:10:26;;;;;;;2.23;1.70;;;7.00;77.30;;;;;;5069070;28;20279;-41
2022/04/04 03:12:53;;;;;;;2.80;1.70;;;6.90;77.20;;;;;;5067118;28;20221;-45
2022/04/04 03:15:23;;;;;;;1.83;1.40;;;6.90;77.10;;;;;;5068661;28;20288;-42
2022/04/04 03:17:53;;;;;;;2.33;1.80;;;7.00;77.50;;;;;;5066454;28;20522;-41
2022/04/04 03:20:22;;;;;;;2.40;1.60;;;6.90;78.50;;;;;;5068639;28;20193;-42
2022/04/04 03:22:53;;;;;;;1.93;1.50;;;7.00;78.10;;;;;;5061548;28;20198;-47
2022/04/04 03:25:20;;;;;;;3.13;1.97;;;7.00;78.10;;;;;;5067109;28;20225;-42
2022/04/04 03:27:48;;;;;;;2.87;1.80;;;6.90;78.40;;;;;;5061286;28;20227;-43
2022/04/04 03:30:20;;;;;;;6.07;2.60;;;6.90;78.70;;;;;;5066399;28;20676;-43
2022/04/04 03:32:47;;;;;;;2.27;1.80;;;7.00;79.90;;;;;;5059421;28;20195;-42
2022/04/04 03:35:15;;;;;;;2.53;1.70;;;6.90;80.00;;;;;;5065288;28;20201;-42
2022/04/04 03:37:44;;;;;;;2.60;2.10;;;6.90;80.10;;;;;;5060192;28;20196;-43
2022/04/04 03:40:14;;;;;;;2.27;1.53;;;7.00;80.80;;;;;;5060535;28;20520;-42
2022/04/04 03:42:42;;;;;;;3.57;1.60;;;7.00;80.70;;;;;;5062079;28;20573;-41
2022/04/04 03:45:12;;;;;;;5.73;1.80;;;7.00;81.10;;;;;;5070839;28;20259;-42
2022/04/04 03:47:40;;;;;;;1.50;1.40;;;7.10;82.50;;;;;;5070375;28;20204;-41
2022/04/04 03:50:09;;;;;;;1.57;1.43;;;7.00;82.10;;;;;;5082280;28;20222;-42
2022/04/04 03:52:36;;;;;;;1.40;1.30;;;7.10;82.10;;;;;;5071019;28;20581;-43
2022/04/04 03:55:05;;;;;;;2.67;1.37;;;7.10;81.80;;;;;;5069644;28;20221;-42
2022/04/04 03:57:33;;;;;;;1.87;1.43;;;7.10;81.90;;;;;;5070634;28;20208;-44
2022/04/04 04:00:00;;;;;;;3.27;1.47;;;7.20;82.30;;;;;;5059138;28;20641;-43
2022/04/04 04:02:27;;;;;;;3.00;1.40;;;7.20;82.10;;;;;;5068000;28;20200;-43
2022/04/04 04:04:55;;;;;;;1.47;1.37;;;7.20;82.60;;;;;;5069399;28;20217;-45
2022/04/04 04:07:24;;;;;;;3.37;1.50;;;7.20;83.10;;;;;;5068895;28;20625;-41
2022/04/04 04:09:52;;;;;;;3.83;1.87;;;7.20;83.10;;;;;;5064289;28;20301;-40
2022/04/04 04:12:20;;;;;;;2.40;1.30;;;7.20;83.30;;;;;;5068316;28;20201;-45
2022/04/04 04:14:48;;;;;;;5.00;1.60;;;7.20;83.20;;;;;;5063358;28;20226;-45
2022/04/04 04:17:16;;;;;;;1.80;1.20;;;7.20;83.30;;;;;;5071393;28;20194;-43
2022/04/04 04:22:27;;;;;;;2.47;1.50;;;7.20;83.40;;;;;;5064246;28;20902;-42
2022/04/04 04:24:55;;;;;;;3.97;2.40;;;7.20;83.40;;;;;;5064236;28;20251;-43
2022/04/04 04:27:22;;;;;;;7.17;3.40;;;7.20;83.30;;;;;;5063056;28;20207;-43
2022/04/04 04:29:50;;;;;;;9.23;4.10;;;7.30;83.60;;;;;;5062804;28;20653;-46
2022/04/04 04:32:17;;;;;;;8.60;3.80;;;7.30;83.80;;;;;;5061094;28;20194;-42
2022/04/04 04:34:46;;;;;;;5.40;2.90;;;7.30;83.60;;;;;;5060143;28;20199;-47
2022/04/04 04:37:14;;;;;;;5.23;2.23;;;7.30;83.60;;;;;;5060808;28;20206;-44
2022/04/04 04:39:41;;;;;;;3.17;2.23;;;7.30;83.40;;;;;;5059977;28;20268;-46
2022/04/04 04:42:08;;;;;;;3.73;2.00;;;7.30;83.90;;;;;;5056055;28;20205;-44
2022/04/04 04:44:35;;;;;;;1.80;1.70;;;7.30;84.10;;;;;;5070795;28;20284;-42
2022/04/04 04:47:05;;;;;;;4.27;2.10;;;7.30;84.00;;;;;;5068734;28;20202;-43
2022/04/04 04:49:32;;;;;;;1.77;1.63;;;7.20;84.90;;;;;;5066809;28;20206;-44
2022/04/04 04:52:00;;;;;;;4.03;2.03;;;7.20;85.10;;;;;;5068682;28;20639;-45
2022/04/04 04:54:27;;;;;;;2.33;1.90;;;7.20;85.40;;;;;;5069284;28;20196;-43
2022/04/04 04:56:54;;;;;;;2.93;2.00;;;7.20;85.80;;;;;;5067707;28;20208;-42
2022/04/04 04:59:21;;;;;;;2.30;2.10;;;7.20;86.10;;;;;;5068778;28;20189;-41
2022/04/04 05:01:48;;;;;;;2.37;2.17;;;7.20;86.20;;;;;;5065854;28;20194;-41
2022/04/04 05:04:17;;;;;;;2.13;1.90;;;7.10;87.10;;;;;;5066417;28;20195;-45
2022/04/04 05:06:48;;;;;;;3.70;1.87;;;7.10;87.20;;;;;;5065385;28;20194;-42
2022/04/04 05:09:16;;;;;;;1.80;1.70;;;7.10;88.00;;;;;;5066070;28;20262;-42
2022/04/04 05:11:43;;;;;;;1.57;1.47;;;7.10;88.30;;;;;;5068306;28;20762;-45
2022/04/04 05:14:15;;;;;;;3.13;2.07;;;7.10;88.20;;;;;;5065578;28;20538;-45
2022/04/04 05:16:43;;;;;;;1.97;1.87;;;7.10;88.60;;;;;;5065013;28;20204;-42
2022/04/04 05:19:11;;;;;;;1.67;1.50;;;7.10;88.80;;;;;;5062688;28;20268;-44
2022/04/04 05:21:40;;;;;;;3.60;1.50;;;7.10;88.80;;;;;;5064643;28;20283;-45
2022/04/04 05:24:08;;;;;;;2.47;1.67;;;7.10;88.80;;;;;;5062611;28;20494;-47
2022/04/04 05:26:36;;;;;;;5.33;1.60;;;7.10;88.80;;;;;;5063809;28;20673;-45
2022/04/04 05:29:03;;;;;;;2.70;1.83;;;7.20;89.00;;;;;;5061723;28;20198;-47
2022/04/04 05:31:31;;;;;;;3.20;2.07;;;7.20;89.20;;;;;;5063219;28;20224;-47
2022/04/04 05:33:58;;;;;;;1.70;1.60;;;7.20;89.50;;;;;;5058953;28;20637;-42
2022/04/04 05:36:26;;;;;;;1.93;1.70;;;7.30;89.50;;;;;;5061678;28;20244;-44
2022/04/04 05:38:55;;;;;;;1.90;1.50;;;7.30;89.60;;;;;;5058647;28;20685;-44
2022/04/04 05:41:23;;;;;;;1.50;1.40;;;7.30;90.00;;;;;;5053804;28;20192;-43
2022/04/04 05:43:50;;;;;;;1.57;1.40;;;7.30;89.90;;;;;;5068455;28;20202;-42
2022/04/04 05:46:18;;;;;;;1.67;1.40;;;7.30;89.80;;;;;;5068720;28;20533;-44
2022/04/04 05:48:46;;;;;;;1.83;1.73;;;7.30;89.90;;;;;;5064302;28;20730;-44
2022/04/04 05:51:15;;;;;;;1.80;1.70;;;7.40;90.00;;;;;;5069350;28;20686;-44
2022/04/04 05:53:42;;;;;;;2.13;1.53;;;7.40;90.00;;;;;;5067399;28;20534;-42
2022/04/04 05:56:11;;;;;;;1.47;1.37;;;7.30;90.10;;;;;;5068254;28;20228;-43
2022/04/04 05:58:40;;;;;;;1.53;1.43;;;7.30;90.20;;;;;;5065523;28;20827;-46
2022/04/04 06:01:08;;;;;;;1.40;1.30;;;7.40;90.20;;;;;;5066026;28;20201;-42
2022/04/04 06:03:36;;;;;;;1.60;1.50;;;7.30;90.00;;;;;;5064218;28;20205;-41
2022/04/04 06:06:03;;;;;;;1.47;1.30;;;7.40;90.30;;;;;;5064943;28;20202;-45
2022/04/04 06:08:31;;;;;;;3.20;1.50;;;7.40;90.10;;;;;;5064092;28;20196;-42
2022/04/04 06:10:58;;;;;;;1.30;1.20;;;7.50;90.20;;;;;;5061109;28;20316;-45
2022/04/04 06:13:27;;;;;;;1.27;1.27;;;7.50;90.00;;;;;;5064976;28;20205;-42
2022/04/04 06:15:54;;;;;;;1.63;1.47;;;7.50;89.70;;;;;;5065296;28;20225;-46
2022/04/04 06:18:22;;;;;;;1.40;1.30;;;7.60;89.80;;;;;;5063958;28;20202;-42
2022/04/04 06:20:49;;;;;;;1.27;1.23;;;7.60;89.90;;;;;;5063911;28;20558;-46
2022/04/04 06:23:16;;;;;;;9.07;1.20;;;7.60;89.70;;;;;;5063611;28;20275;-50
2022/04/04 06:25:48;;;;;;;1.30;1.30;;;7.60;89.90;;;;;;5062978;28;20226;-48
2022/04/04 06:28:16;;;;;;;1.40;1.30;;;7.60;89.70;;;;;;5065956;28;20227;-51
2022/04/04 06:30:45;;;;;;;1.17;1.17;;;7.60;89.70;;;;;;5060118;28;20264;-49
2022/04/04 06:33:12;;;;;;;1.40;1.30;;;7.60;89.60;;;;;;5061096;28;20300;-47
2022/04/04 06:35:40;;;;;;;1.13;1.13;;;7.60;90.00;;;;;;5060364;28;20750;-43
2022/04/04 06:38:08;;;;;;;1.17;1.10;;;7.60;89.90;;;;;;5062135;28;20791;-43
2022/04/04 06:40:36;;;;;;;1.27;1.17;;;7.60;90.00;;;;;;5062003;28;20191;-44
2022/04/04 06:43:03;;;;;;;1.10;1.10;;;7.60;90.10;;;;;;5073152;28;20213;-43
2022/04/04 06:45:30;;;;;;;1.13;0.90;;;7.60;90.10;;;;;;5072027;28;20195;-43
2022/04/04 06:47:59;;;;;;;1.07;1.07;;;7.60;90.10;;;;;;5069151;28;20197;-41
2022/04/04 06:50:26;;;;;;;1.20;1.10;;;7.60;90.20;;;;;;5071944;28;20680;-42
2022/04/04 06:52:53;;;;;;;1.00;1.00;;;7.50;90.10;;;;;;5071171;28;20194;-41
2022/04/04 06:55:22;;;;;;;1.17;0.90;;;7.60;90.20;;;;;;5071245;28;20198;-42
2022/04/04 06:57:49;;;;;;;1.00;1.00;;;7.50;90.20;;;;;;5070849;28;20199;-43
2022/04/04 07:00:17;;;;;;;1.00;1.00;;;7.50;90.30;;;;;;5070977;28;20302;-41
2022/04/04 07:02:45;;;;;;;1.27;0.80;;;7.50;90.30;;;;;;5067874;28;20280;-44
2022/04/04 07:05:14;;;;;;;0.90;0.90;;;7.50;90.30;;;;;;5093921;28;20214;-41
2022/04/04 07:07:41;;;;;;;4.37;1.23;;;7.50;90.30;;;;;;5070213;28;20255;-42
2022/04/04 07:10:10;;;;;;;1.07;1.00;;;7.60;90.30;;;;;;5069819;28;20215;-45
2022/04/04 07:12:41;;;;;;;0.90;0.90;;;7.60;90.30;;;;;;5070034;28;20189;-41
2022/04/04 07:15:10;;;;;;;1.00;1.00;;;7.60;90.20;;;;;;5068582;28;20237;-44
2022/04/04 07:17:38;;;;;;;1.23;0.90;;;7.60;90.20;;;;;;5064001;28;20205;-42
2022/04/04 07:20:07;;;;;;;0.93;0.93;;;7.60;90.10;;;;;;5067944;28;20197;-44
2022/04/04 07:22:40;;;;;;;1.23;1.03;;;7.60;90.10;;;;;;5063070;28;20212;-43
2022/04/04 07:25:09;;;;;;;1.50;1.40;;;7.60;90.10;;;;;;5067049;28;20237;-42
2022/04/04 07:27:39;;;;;;;1.30;1.30;;;7.60;89.80;;;;;;5061934;28;20240;-43
2022/04/04 07:30:08;;;;;;;1.03;1.03;;;7.70;89.50;;;;;;5059919;28;20232;-42
2022/04/04 07:32:36;;;;;;;1.40;1.30;;;7.70;89.10;;;;;;5059242;28;20206;-43
2022/04/04 07:35:04;;;;;;;1.60;1.50;;;7.80;89.00;;;;;;5085492;28;20543;-41
2022/04/04 07:37:31;;;;;;;1.53;1.43;;;7.80;88.90;;;;;;5059847;28;20286;-48
2022/04/04 07:40:00;;;;;;;1.70;1.60;;;7.80;88.70;;;;;;5056454;28;20244;-43
2022/04/04 07:42:28;;;;;;;2.23;1.57;;;7.80;88.60;;;;;;5059856;28;20755;-42
2022/04/04 07:44:55;;;;;;;1.77;1.33;;;7.80;88.50;;;;;;5070822;28;20251;-41
2022/04/04 07:47:22;;;;;;;1.70;1.60;;;7.80;88.60;;;;;;5071511;28;20676;-41
2022/04/04 07:49:50;;;;;;;1.80;1.70;;;7.80;88.60;;;;;;5067221;28;20197;-45
2022/04/04 07:52:17;;;;;;;5.60;1.60;;;7.90;88.50;;;;;;5070929;28;20208;-43
2022/04/04 07:54:45;;;;;;;2.87;1.50;;;7.90;88.50;;;;;;5067816;28;20201;-42
2022/04/04 07:57:14;;;;;;;1.70;1.60;;;7.90;87.60;;;;;;5070490;28;20236;-48
2022/04/04 07:59:41;;;;;;;2.23;1.57;;;8.00;87.40;;;;;;5066984;28;20229;-46
2022/04/04 08:02:09;;;;;;;3.03;1.63;;;7.90;86.90;;;;;;5068926;28;20193;-42
2022/04/04 08:04:36;;;;;;;1.50;1.40;;;7.80;86.70;;;;;;5063448;28;20224;-46
2022/04/04 08:07:04;;;;;;;1.60;1.50;;;7.80;86.80;;;;;;5066959;28;20214;-42
2022/04/04 08:09:31;;;;;;;1.77;1.67;;;7.80;86.80;;;;;;5066042;28;20661;-45
2022/04/04 08:11:58;;;;;;;2.53;1.50;;;7.80;87.10;;;;;;5067772;28;20708;-44
2022/04/04 08:14:27;;;;;;;1.70;1.60;;;7.80;86.90;;;;;;5064370;28;20241;-43
2022/04/04 08:16:54;;;;;;;3.20;1.93;;;7.80;86.70;;;;;;5085755;28;20200;-44
2022/04/04 08:19:21;;;;;;;1.57;1.47;;;7.90;86.80;;;;;;5063744;28;20688;-41
2022/04/04 08:21:49;;;;;;;1.50;1.40;;;7.80;86.60;;;;;;5066599;28;20201;-41
2022/04/04 08:24:16;;;;;;;2.10;1.90;;;7.90;86.60;;;;;;5066880;28;20748;-45
2022/04/04 08:26:43;;;;;;;3.40;2.10;;;8.00;86.30;;;;;;5066043;28;20193;-46
2022/04/04 08:29:11;;;;;;;3.50;2.00;;;8.00;85.90;;;;;;5069983;28;20203;-42
2022/04/04 08:31:40;;;;;;;2.07;1.97;;;8.00;85.30;;;;;;5065594;28;20212;-42
2022/04/04 08:34:08;;;;;;;2.30;2.10;;;8.00;85.00;;;;;;5052238;28;20598;-44
2022/04/04 08:36:35;;;;;;;8.27;2.23;;;8.00;84.60;;;;;;5063915;28;20209;-42
2022/04/04 08:39:03;;;;;;;6.00;1.80;;;8.00;84.00;;;;;;5059137;28;20207;-43
2022/04/04 08:41:32;;;;;;;2.30;1.87;;;8.00;83.40;;;;;;5054584;28;20272;-47
2022/04/04 08:44:01;;;;;;;5.53;2.07;;;8.10;83.10;;;;;;5070741;28;20680;-47
2022/04/04 08:46:29;;;;;;;4.30;1.47;;;8.20;82.70;;;;;;5068410;28;20205;-43
2022/04/04 08:48:58;;;;;;;5.87;1.67;;;8.30;82.30;;;;;;5060371;28;20219;-43
2022/04/04 08:51:26;;;;;;;6.57;1.97;;;8.40;81.20;;;;;;5068684;28;20219;-44
2022/04/04 08:53:54;;;;;;;2.80;1.70;;;8.40;79.60;;;;;;5058984;28;20318;-43
2022/04/04 08:56:23;;;;;;;2.63;1.67;;;8.50;78.30;;;;;;5067594;28;20249;-46
2022/04/04 08:58:51;;;;;;;3.47;1.40;;;8.60;77.90;;;;;;5058042;28;20208;-45
2022/04/04 09:01:19;;;;;;;4.43;2.30;;;8.70;77.40;;;;;;5065657;28;20193;-45
2022/04/04 09:03:52;;;;;;;1.57;1.40;;;8.70;76.40;;;;;;5056245;28;20194;-44
2022/04/04 09:06:21;;;;;;;3.00;1.50;;;8.70;75.80;;;;;;5064612;28;20669;-48
2022/04/04 09:08:50;;;;;;;4.03;1.50;;;8.70;75.80;;;;;;5067132;28;20185;-46
2022/04/04 09:11:18;;;;;;;1.43;1.33;;;8.80;75.00;;;;;;5065878;28;20294;-47
2022/04/04 09:13:45;;;;;;;3.80;1.33;;;8.90;74.20;;;;;;5066413;28;20299;-48
2022/04/04 09:16:12;;;;;;;2.50;1.40;;;9.10;73.90;;;;;;5065883;28;20221;-43
2022/04/04 09:18:49;;;;;;;1.50;1.40;;;9.30;73.40;;;;;;5061097;28;20680;-44
2022/04/04 09:21:35;;;;;;;2.13;1.50;;;9.50;72.20;;;;;;5060567;28;20289;-44
2022/04/04 09:24:07;;;;;;;4.47;1.40;;;9.70;71.00;;;;;;5062228;28;20284;-46
2022/04/04 09:26:37;;;;;;;2.67;1.30;;;9.80;69.70;;;;;;5062527;28;20216;-50
2022/04/04 09:29:08;;;;;;;2.70;1.30;;;9.80;68.50;;;;;;5058899;28;20707;-42
2022/04/04 09:31:36;;;;;;;2.47;1.53;;;9.80;67.60;;;;;;5061876;28;20325;-43
2022/04/04 09:34:06;;;;;;;2.77;1.27;;;9.90;67.70;;;;;;5057831;28;20259;-44
2022/04/04 09:36:47;;;;;;;1.40;1.23;;;9.90;67.50;;;;;;5062262;28;20201;-42
2022/04/04 09:39:16;;;;;;;1.30;1.20;;;9.90;65.90;;;;;;5056338;28;20209;-42
2022/04/04 09:41:43;;;;;;;2.33;1.37;;;10.00;64.60;;;;;;5051741;28;20186;-43
2022/04/04 09:44:12;;;;;;;6.50;1.40;;;10.10;64.80;;;;;;5069766;28;20193;-44
2022/04/04 09:46:41;;;;;;;1.27;1.00;;;10.20;64.70;;;;;;5067394;28;20579;-45
2022/04/04 09:49:13;;;;;;;1.00;1.00;;;10.30;64.20;;;;;;5065995;28;20284;-44
2022/04/04 09:51:44;;;;;;;3.63;1.23;;;10.40;64.00;;;;;;5067967;28;20225;-43
2022/04/04 09:54:17;;;;;;;4.23;1.27;;;10.40;62.40;;;;;;5068895;28;20196;-44
2022/04/04 09:56:46;;;;;;;0.90;0.90;;;10.50;61.90;;;;;;5069386;28;20208;-45
2022/04/04 09:59:19;;;;;;;1.80;1.20;;;10.50;61.40;;;;;;5068016;28;20204;-48
2022/04/04 10:01:48;;;;;;;2.80;0.77;;;10.60;61.20;;;;;;5065021;28;20215;-49
2022/04/04 10:04:16;;;;;;;1.87;1.10;;;10.60;60.00;;;;;;5065924;28;20562;-48
2022/04/04 10:06:47;;;;;;;1.17;0.90;;;10.70;60.20;;;;;;5061859;28;20663;-44
2022/04/04 10:09:15;;;;;;;2.47;1.03;;;10.80;59.70;;;;;;5063070;28;20194;-46
2022/04/04 10:11:42;;;;;;;2.30;1.13;;;10.80;58.80;;;;;;5062596;28;20256;-43
2022/04/04 10:14:10;;;;;;;0.90;0.90;;;10.80;57.80;;;;;;5064048;28;20228;-43
2022/04/04 10:16:38;;;;;;;8.80;1.30;;;10.80;57.30;;;;;;5062345;28;20193;-42
2022/04/04 10:19:06;;;;;;;9.40;1.20;;;10.90;56.60;;;;;;5061565;28;20313;-42
2022/04/04 10:21:33;;;;;;;1.23;0.90;;;10.80;55.70;;;;;;5061248;28;20530;-43
2022/04/04 10:24:03;;;;;;;2.03;1.10;;;10.90;56.00;;;;;;5067896;28;20687;-44
2022/04/04 10:26:33;;;;;;;1.00;0.87;;;10.90;55.70;;;;;;5060982;28;20188;-46
2022/04/04 10:29:13;;;;;;;7.87;1.40;;;11.00;55.80;;;;;;5059821;28;20199;-44
2022/04/04 10:31:44;;;;;;;2.70;1.40;;;11.00;54.60;;;;;;5061439;28;20203;-48
2022/04/04 10:34:13;;;;;;;1.20;1.10;;;11.00;54.20;;;;;;5055296;28;20203;-43
2022/04/04 10:36:58;;;;;;;2.30;1.20;;;11.00;54.60;;;;;;5061417;28;20202;-45
2022/04/04 10:39:41;;;;;;;1.80;1.40;;;11.10;54.70;;;;;;5056226;28;20617;-47
2022/04/04 10:42:25;;;;;;;1.07;1.00;;;11.20;54.40;;;;;;5067829;28;20215;-43
2022/04/04 10:45:03;;;;;;;3.10;1.30;;;11.30;54.30;;;;;;5067299;28;20711;-44
2022/04/04 10:47:31;;;;;;;6.73;1.10;;;11.30;53.40;;;;;;5056646;28;20197;-50
2022/04/04 10:50:16;;;;;;;2.50;0.90;;;11.30;53.10;;;;;;5062713;28;20231;-44
2022/04/04 10:52:45;;;;;;;1.87;1.00;;;11.30;52.20;;;;;;5068078;28;20228;-50
2022/04/04 10:55:53;;;;;;;3.53;1.10;;;11.30;52.00;;;;;;5064365;28;20785;-49
2022/04/04 10:58:22;;;;;;;5.73;1.20;;;11.30;51.00;;;;;;5063557;28;20193;-47
2022/04/04 11:00:59;;;;;;;3.13;0.90;;;11.20;50.90;;;;;;5069984;28;20537;-42
2022/04/04 11:03:28;;;;;;;0.93;0.87;;;11.10;51.10;;;;;;5080301;28;20208;-46
2022/04/04 11:09:11;;;;;;;1.30;1.17;;;11.10;50.90;;;;;;5068968;28;20195;-49
2022/04/04 11:11:52;;;;;;;2.17;1.00;;;11.20;50.80;;;;;;5065063;28;20212;-45
2022/04/04 11:14:42;;;;;;;4.13;0.90;;;11.20;50.80;;;;;;5067577;28;20236;-48
2022/04/04 11:17:20;;;;;;;1.27;0.80;;;11.20;50.60;;;;;;5071496;28;20205;-46
2022/04/04 11:19:48;;;;;;;7.87;0.90;;;11.20;50.40;;;;;;5061595;28;20229;-45
2022/04/04 11:22:16;;;;;;;2.60;1.20;;;11.20;50.20;;;;;;5065803;28;20201;-44
2022/04/04 11:24:44;;;;;;;5.43;1.13;;;11.10;50.00;;;;;;5061682;28;20281;-46
2022/04/04 11:27:13;;;;;;;3.17;1.10;;;11.20;50.40;;;;;;5064446;28;20660;-44
2022/04/04 11:29:40;;;;;;;1.00;0.90;;;11.30;50.30;;;;;;5061523;28;20200;-46
2022/04/04 11:32:09;;;;;;;1.03;0.90;;;11.40;50.20;;;;;;5062360;28;20565;-45
2022/04/04 11:34:42;;;;;;;1.37;1.07;;;11.40;49.90;;;;;;5058952;28;20755;-47
2022/04/04 11:37:17;;;;;;;1.50;1.20;;;11.40;49.70;;;;;;5060871;28;20244;-46
2022/04/04 11:39:46;;;;;;;1.67;0.80;;;11.40;49.60;;;;;;5061278;28;20219;-48
2022/04/04 11:42:15;;;;;;;4.03;1.10;;;11.50;49.30;;;;;;5071728;28;20219;-45
2022/04/04 11:44:47;;;;;;;13.57;1.00;;;11.50;48.40;;;;;;5070919;28;20537;-47
2022/04/04 11:47:16;;;;;;;4.10;1.07;;;11.40;47.90;;;;;;5071283;28;20710;-45
2022/04/04 11:49:44;;;;;;;0.90;0.70;;;11.50;48.10;;;;;;5067213;28;20197;-51
2022/04/04 11:52:16;;;;;;;2.37;0.93;;;11.50;47.90;;;;;;5071253;28;20224;-45
2022/04/04 11:54:46;;;;;;;2.87;0.90;;;11.40;47.60;;;;;;5068350;28;20295;-48
2022/04/04 11:57:15;;;;;;;3.60;0.97;;;11.40;47.50;;;;;;5058069;28;20212;-45
2022/04/04 11:59:44;;;;;;;1.93;0.80;;;11.40;47.20;;;;;;5067633;28;20226;-46
2022/04/04 12:02:13;;;;;;;4.33;0.80;;;11.40;46.90;;;;;;5069635;28;20192;-51
2022/04/04 12:04:41;;;;;;;3.00;0.83;;;11.40;46.90;;;;;;5064630;28;20211;-44
2022/04/04 12:07:10;;;;;;;2.80;1.17;;;11.40;46.70;;;;;;5069117;28;20250;-49
2022/04/04 12:09:39;;;;;;;4.10;1.20;;;11.40;46.60;;;;;;5063980;28;20201;-48
2022/04/04 12:12:08;;;;;;;5.33;1.07;;;11.40;46.70;;;;;;5067048;28;20213;-47
2022/04/04 12:14:39;;;;;;;16.23;1.40;;;11.40;46.50;;;;;;5062223;28;20237;-45
2022/04/04 12:17:07;;;;;;;3.63;0.93;;;11.40;46.00;;;;;;5071644;28;20200;-45
2022/04/04 12:19:42;;;;;;;1.43;0.97;;;11.40;45.80;;;;;;5058868;28;20600;-46
2022/04/04 12:24:55;;;;;;;3.07;1.00;;;11.40;45.70;;;;;;5065740;28;20199;-42
2022/04/04 12:25:06;;;;;;;5.63;1.03;;;11.30;45.50;;;;;;5065297;28;20197;-47
2022/04/04 12:27:34;;;;;;;3.40;1.00;;;11.30;45.60;;;;;;5060467;28;20213;-49
2022/04/04 12:30:06;;;;;;;4.73;1.17;;;11.30;45.40;;;;;;5064807;28;20254;-51
2022/04/04 12:32:35;;;;;;;7.47;1.20;;;11.30;45.30;;;;;;5057689;28;20206;-48
2022/04/04 12:35:06;;;;;;;4.43;1.30;;;11.20;44.50;;;;;;5063894;28;20241;-51
2022/04/04 12:37:39;;;;;;;17.70;1.50;;;11.20;44.60;;;;;;5057479;28;20196;-47
2022/04/04 12:40:25;;;;;;;7.93;1.13;;;11.20;43.80;;;;;;5054338;28;20268;-42
2022/04/04 12:43:06;;;;;;;5.20;0.97;;;11.20;43.30;;;;;;5061847;28;20196;-47
2022/04/04 12:45:45;;;;;;;3.90;1.37;;;11.10;43.20;;;;;;5067951;28;20546;-45
2022/04/04 12:48:12;;;;;;;7.27;1.07;;;11.10;43.20;;;;;;5065094;28;20206;-44
2022/04/04 12:50:43;;;;;;;2.67;1.10;;;11.10;43.20;;;;;;5070196;28;20229;-42
2022/04/04 12:53:12;;;;;;;4.73;1.10;;;11.10;43.00;;;;;;5067752;28;20214;-43
2022/04/04 12:55:40;;;;;;;9.13;1.20;;;11.10;43.30;;;;;;5058235;28;20204;-41
2022/04/04 12:58:19;;;;;;;2.67;1.20;;;11.10;43.40;;;;;;5069356;28;20654;-43
2022/04/04 13:00:49;;;;;;;15.20;1.43;;;11.00;43.60;;;;;;5059806;28;20574;-45
2022/04/04 13:03:22;;;;;;;12.97;1.70;;;11.00;43.90;;;;;;5062133;28;20185;-44
2022/04/04 13:05:50;;;;;;;5.97;1.07;;;10.90;43.90;;;;;;5067047;28;20203;-48
2022/04/04 13:08:18;;;;;;;11.60;1.30;;;10.80;44.10;;;;;;5062365;28;20195;-48
2022/04/04 13:11:02;;;;;;;13.60;1.70;;;10.80;44.20;;;;;;5065792;28;20200;-48
2022/04/04 13:13:29;;;;;;;11.77;2.10;;;10.70;44.10;;;;;;5065640;28;20218;-43